This is the latest recevied weather packets stored in our database for station/object F4FEB-13. If no packets are shown the sender has not sent any weather packets the latest 10 day(s).
| Time | Temp. | Humidity | Pressure | Rain* | Wind** | Luminosity | Snow |
|---|---|---|---|---|---|---|---|
| 1777750467 | 15° C | 57% | 1017.5 hPa | 0 mm | - | - | - |
| 1777750167 | 15° C | 58% | 1017.5 hPa | 0 mm | - | - | - |
| 1777749867 | 15° C | 59% | 1017.5 hPa | 0 mm | - | - | - |
| 1777749567 | 15° C | 59% | 1017.5 hPa | 0 mm | - | - | - |
| 1777749267 | 15.56° C | 57% | 1017.4 hPa | 0 mm | - | - | - |
| 1777748967 | 15.56° C | 54% | 1017.4 hPa | 0 mm | - | - | - |
| 1777748667 | 16.11° C | 52% | 1017.4 hPa | 0 mm | - | - | - |
| 1777748367 | 16.67° C | 49% | 1017.3 hPa | 0 mm | - | - | - |
| 1777748067 | 17.78° C | 44% | 1017.3 hPa | 0 mm | - | - | - |
| 1777747767 | 17.78° C | 42% | 1017.2 hPa | 0 mm | - | - | - |
| 1777747467 | 18.33° C | 40% | 1017.2 hPa | 0 mm | - | - | - |
| 1777747167 | 18.33° C | 39% | 1017.1 hPa | 0 mm | - | - | - |
| 1777746867 | 18.33° C | 38% | 1016.9 hPa | 0 mm | - | - | - |
| 1777746567 | 18.89° C | 39% | 1016.9 hPa | 0 mm | - | - | - |
| 1777746267 | 18.89° C | 39% | 1016.8 hPa | 0 mm | - | - | - |
| 1777745967 | 18.89° C | 40% | 1016.8 hPa | 0 mm | - | - | - |
| 1777745667 | 18.89° C | 42% | 1016.8 hPa | 0 mm | - | - | - |
| 1777745367 | 18.89° C | 44% | 1016.9 hPa | 0 mm | - | - | - |
| 1777745067 | 18.89° C | 49% | 1016.8 hPa | 0 mm | - | - | - |
| 1777744767 | 19.44° C | 49% | 1016.7 hPa | 0 mm | - | - | - |
| 1777744467 | 19.44° C | 50% | 1016.7 hPa | 0 mm | - | - | - |
| 1777744167 | 19.44° C | 51% | 1016.7 hPa | 0 mm | - | - | - |
| 1777743867 | 19.44° C | 55% | 1016.8 hPa | 0 mm | - | - | - |
| 1777743567 | 19.44° C | 57% | 1016.8 hPa | 0 mm | - | - | - |
| 1777743267 | 19.44° C | 59% | 1016.8 hPa | 0 mm | - | - | - |
* Rain latest hour (hover to see other rain measurements)
** Current wind speed in m/s (hover to see current wind gust speed)